createdAt,value
2023-04-11T00:01:49.934Z,4.11
2023-04-11T00:04:20.614Z,2.24
2023-04-11T00:06:48.452Z,2.67
2023-04-11T00:09:16.836Z,3.00
2023-04-11T00:11:44.115Z,2.60
2023-04-11T00:14:12.597Z,2.84
2023-04-11T00:16:39.863Z,3.41
2023-04-11T00:19:07.464Z,2.48
2023-04-11T00:21:35.716Z,2.79
2023-04-11T00:24:03.159Z,2.38
2023-04-11T00:26:29.932Z,2.17
2023-04-11T00:28:56.903Z,2.77
2023-04-11T00:31:23.895Z,4.58
2023-04-11T00:33:50.668Z,4.20
2023-04-11T00:36:17.857Z,1.97
2023-04-11T00:38:46.720Z,2.96
2023-04-11T00:41:13.592Z,3.02
2023-04-11T00:43:40.789Z,4.31
2023-04-11T00:46:09.835Z,2.77
2023-04-11T00:48:36.927Z,3.66
2023-04-11T00:51:04.285Z,3.12
2023-04-11T00:53:33.143Z,2.80
2023-04-11T00:56:00.679Z,2.13
2023-04-11T00:58:28.733Z,1.28
2023-04-11T01:00:55.739Z,1.09
2023-04-11T01:03:22.929Z,1.51
2023-04-11T01:05:54.310Z,2.01
2023-04-11T01:08:22.585Z,2.06
2023-04-11T01:10:50.331Z,2.39
2023-04-11T01:13:19.894Z,1.56
2023-04-11T01:15:47.075Z,1.94
2023-04-11T01:18:15.524Z,2.60
2023-04-11T01:20:42.591Z,3.15
2023-04-11T01:23:10.900Z,2.37
2023-04-11T01:25:37.775Z,3.58
2023-04-11T01:28:04.985Z,4.00
2023-04-11T01:30:32.494Z,3.31
2023-04-11T01:32:59.449Z,3.36
2023-04-11T01:35:26.282Z,3.90
2023-04-11T01:37:53.528Z,3.72
2023-04-11T01:40:21.498Z,3.59
2023-04-11T01:42:49.253Z,3.69
2023-04-11T01:45:16.585Z,2.97
2023-04-11T01:47:45.422Z,4.19
2023-04-11T01:50:12.331Z,4.66
2023-04-11T01:52:39.184Z,3.83
2023-04-11T01:55:06.282Z,4.61
2023-04-11T01:57:33.980Z,4.75
2023-04-11T02:00:01.409Z,3.44
2023-04-11T02:02:30.079Z,3.03
2023-04-11T02:04:57.032Z,1.70
2023-04-11T02:07:24.584Z,2.96
2023-04-11T02:09:51.320Z,2.98
2023-04-11T02:12:19.334Z,2.46
2023-04-11T02:14:46.695Z,3.73
2023-04-11T02:17:14.570Z,3.56
2023-04-11T02:19:41.478Z,4.32
2023-04-11T02:22:11.302Z,4.24
2023-04-11T02:24:39.811Z,3.58
2023-04-11T02:27:06.850Z,3.25
2023-04-11T02:29:34.454Z,4.16
2023-04-11T02:32:01.704Z,4.88
2023-04-11T02:34:29.827Z,3.71
2023-04-11T02:36:56.683Z,4.51
2023-04-11T02:39:26.489Z,3.98
2023-04-11T02:41:55.669Z,5.16
2023-04-11T02:44:22.709Z,6.25
2023-04-11T02:46:50.025Z,5.34
2023-04-11T02:49:16.867Z,5.16
2023-04-11T02:51:47.873Z,3.97
2023-04-11T02:54:14.901Z,4.51
2023-04-11T02:56:43.448Z,3.50
2023-04-11T02:59:10.284Z,5.24
2023-04-11T03:01:38.322Z,4.46
2023-04-11T03:04:07.319Z,4.14
2023-04-11T03:06:54.496Z,3.16
2023-04-11T03:09:21.519Z,4.83
2023-04-11T03:11:48.785Z,4.52
2023-04-11T03:14:16.349Z,3.05
2023-04-11T03:16:43.240Z,2.88
2023-04-11T03:19:10.052Z,3.93
2023-04-11T03:21:36.906Z,3.98
2023-04-11T03:24:05.032Z,3.17
2023-04-11T03:26:32.416Z,4.05
2023-04-11T03:29:07.776Z,4.23
2023-04-11T03:31:44.205Z,4.21
2023-04-11T03:34:12.071Z,4.43
2023-04-11T03:36:40.751Z,4.42
2023-04-11T03:39:07.562Z,4.04
2023-04-11T03:41:35.079Z,2.80
2023-04-11T03:44:02.387Z,4.35
2023-04-11T03:46:30.250Z,4.55
2023-04-11T03:48:57.428Z,2.97
2023-04-11T03:51:24.412Z,3.15
2023-04-11T03:54:00.370Z,4.17
2023-04-11T03:56:31.670Z,5.14
2023-04-11T03:58:58.625Z,5.42
2023-04-11T04:01:30.305Z,5.14
2023-04-11T04:04:02.128Z,3.80
2023-04-11T04:06:31.876Z,3.63
2023-04-11T04:08:59.808Z,4.22
2023-04-11T04:11:31.524Z,5.78
2023-04-11T04:13:59.086Z,4.76
2023-04-11T04:16:25.997Z,4.24
2023-04-11T04:18:57.384Z,3.86
2023-04-11T04:21:26.773Z,5.13
2023-04-11T04:23:57.329Z,5.84
2023-04-11T04:26:32.233Z,5.52
2023-04-11T04:29:10.309Z,4.03
2023-04-11T04:31:52.960Z,4.52
2023-04-11T04:34:29.308Z,3.77
2023-04-11T04:36:59.668Z,5.16
2023-04-11T04:39:38.227Z,6.23
2023-04-11T04:42:07.050Z,5.82
2023-04-11T04:44:38.148Z,5.98
2023-04-11T04:47:12.972Z,5.77
2023-04-11T04:49:39.747Z,5.89
2023-04-11T04:52:06.854Z,5.59
2023-04-11T04:54:34.265Z,5.76
2023-04-11T04:57:01.512Z,6.36
2023-04-11T04:59:28.479Z,5.46
2023-04-11T05:02:02.629Z,6.37
2023-04-11T05:04:30.522Z,5.33
2023-04-11T05:06:59.286Z,4.00
2023-04-11T05:09:28.442Z,4.51
2023-04-11T05:12:07.227Z,5.18
2023-04-11T05:14:36.600Z,4.45
2023-04-11T05:17:04.366Z,2.72
2023-04-11T05:19:32.371Z,3.26
2023-04-11T05:21:59.360Z,3.39
2023-04-11T05:24:26.675Z,4.50
2023-04-11T05:26:54.564Z,4.33
2023-04-11T05:29:21.432Z,4.10
2023-04-11T05:31:49.628Z,5.02
2023-04-11T05:34:16.670Z,4.07
2023-04-11T05:36:47.501Z,5.79
2023-04-11T05:39:14.272Z,4.33
2023-04-11T05:41:41.100Z,4.40
2023-04-11T05:44:07.890Z,3.22
2023-04-11T05:46:38.581Z,5.86
2023-04-11T05:49:06.440Z,3.54
2023-04-11T05:51:33.257Z,3.65
2023-04-11T05:54:00.054Z,5.06
2023-04-11T05:56:26.872Z,3.79
2023-04-11T05:58:53.843Z,3.92
2023-04-11T06:01:22.462Z,4.62
2023-04-11T06:03:50.286Z,3.82
2023-04-11T06:06:17.410Z,3.96
2023-04-11T06:08:44.873Z,5.20
2023-04-11T06:11:11.687Z,4.26
2023-04-11T06:13:38.558Z,4.51
2023-04-11T06:16:06.913Z,4.50
2023-04-11T06:18:33.754Z,4.30
2023-04-11T06:21:00.553Z,3.55
2023-04-11T06:23:27.400Z,3.76
2023-04-11T06:25:54.201Z,3.52
2023-04-11T06:28:21.908Z,4.63
2023-04-11T06:30:48.736Z,5.02
2023-04-11T06:33:15.490Z,3.96
2023-04-11T06:35:42.467Z,4.04
2023-04-11T06:38:09.337Z,5.11
2023-04-11T06:40:37.094Z,4.34
2023-04-11T06:43:03.926Z,4.53
2023-04-11T06:45:31.468Z,5.15
2023-04-11T06:47:58.388Z,4.10
2023-04-11T06:50:25.314Z,5.06
2023-04-11T06:52:52.259Z,4.57
2023-04-11T06:55:19.176Z,3.96
2023-04-11T06:57:45.993Z,4.51
2023-04-11T07:00:13.738Z,4.55
2023-04-11T07:02:41.125Z,3.75
2023-04-11T07:05:12.125Z,3.79
2023-04-11T07:07:39.060Z,5.11
2023-04-11T07:10:07.387Z,3.30
2023-04-11T07:12:34.180Z,4.91
2023-04-11T07:15:02.750Z,4.72
2023-04-11T07:17:29.600Z,3.89
2023-04-11T07:19:56.522Z,4.18
2023-04-11T07:22:23.967Z,4.23
2023-04-11T07:24:55.370Z,5.57
2023-04-11T07:27:23.621Z,5.20
2023-04-11T07:29:51.269Z,3.56
2023-04-11T07:32:18.471Z,2.92
2023-04-11T07:34:45.288Z,4.70
2023-04-11T07:37:12.598Z,3.34
2023-04-11T07:39:40.534Z,4.24
2023-04-11T07:42:07.839Z,3.96
2023-04-11T07:44:36.069Z,3.73
2023-04-11T07:47:03.535Z,5.21
2023-04-11T07:49:30.343Z,4.83
2023-04-11T07:51:57.178Z,4.63
2023-04-11T07:54:25.379Z,5.10
2023-04-11T07:56:52.743Z,5.80
2023-04-11T07:59:19.581Z,4.58
2023-04-11T08:01:46.515Z,3.26
2023-04-11T08:04:13.856Z,3.86
2023-04-11T08:06:41.098Z,4.63
2023-04-11T08:09:07.942Z,4.79
2023-04-11T08:11:35.135Z,5.19
2023-04-11T08:14:02.055Z,4.83
2023-04-11T08:16:29.027Z,4.67
2023-04-11T08:18:57.309Z,6.31
2023-04-11T08:21:25.177Z,3.47
2023-04-11T08:23:52.793Z,5.41
2023-04-11T08:26:21.606Z,4.18
2023-04-11T08:28:48.551Z,4.64
2023-04-11T08:31:15.589Z,5.21
2023-04-11T08:33:42.475Z,5.56
2023-04-11T08:36:10.666Z,3.07
2023-04-11T08:38:39.447Z,4.10
2023-04-11T08:41:07.033Z,5.15
2023-04-11T08:43:35.551Z,5.97
2023-04-11T08:46:08.302Z,4.78
2023-04-11T08:48:36.626Z,5.79
2023-04-11T08:51:03.566Z,4.82
2023-04-11T08:53:31.150Z,5.16
2023-04-11T08:55:59.831Z,4.95
2023-04-11T08:58:26.873Z,4.55
2023-04-11T09:00:53.693Z,4.72
2023-04-11T09:03:20.678Z,5.01
2023-04-11T09:05:48.662Z,4.29
2023-04-11T09:08:17.105Z,5.35
2023-04-11T09:10:45.616Z,5.32
2023-04-11T09:13:26.106Z,5.56
2023-04-11T09:16:12.066Z,4.61
2023-04-11T09:18:40.023Z,4.96
2023-04-11T09:21:10.036Z,3.86
2023-04-11T09:23:38.632Z,5.24
2023-04-11T09:26:07.225Z,4.94
2023-04-11T09:28:50.733Z,4.34
2023-04-11T09:31:17.769Z,4.61
2023-04-11T09:33:55.751Z,5.79
2023-04-11T09:36:25.111Z,5.26
2023-04-11T09:38:52.429Z,5.51
2023-04-11T09:41:33.412Z,5.13
2023-04-11T09:44:01.652Z,6.42
2023-04-11T09:46:28.668Z,6.72
2023-04-11T09:48:56.606Z,6.62
2023-04-11T09:53:55.365Z,6.18
2023-04-11T09:56:24.213Z,6.95
2023-04-11T09:58:52.744Z,5.77
2023-04-11T10:01:20.396Z,6.15
2023-04-11T10:03:51.138Z,4.83
2023-04-11T10:06:50.479Z,5.83
2023-04-11T10:09:17.611Z,4.14
2023-04-11T10:11:45.511Z,4.79
2023-04-11T10:14:47.952Z,5.27
2023-04-11T10:17:22.567Z,4.02
2023-04-11T10:19:58.971Z,4.78
2023-04-11T10:22:41.121Z,3.81
2023-04-11T10:25:23.006Z,5.02
2023-04-11T10:28:01.489Z,4.47
2023-04-11T10:30:40.902Z,5.53
2023-04-11T10:33:21.050Z,4.10
2023-04-11T10:36:07.378Z,3.38
2023-04-11T10:38:43.496Z,2.92
2023-04-11T10:41:25.731Z,2.93
2023-04-11T10:44:12.071Z,3.58
2023-04-11T10:46:51.658Z,3.03
2023-04-11T10:49:39.750Z,1.56
2023-04-11T10:52:24.781Z,2.87
2023-04-11T10:54:54.789Z,2.58
2023-04-11T10:57:23.433Z,2.14
2023-04-11T10:59:50.538Z,3.57
2023-04-11T11:02:19.479Z,3.03
2023-04-11T11:04:47.599Z,3.77
2023-04-11T11:07:17.134Z,2.65
2023-04-11T11:09:51.570Z,3.70
2023-04-11T11:12:18.535Z,2.86
2023-04-11T11:14:47.129Z,3.03
2023-04-11T11:17:16.223Z,4.14
2023-04-11T11:19:47.769Z,3.06
2023-04-11T11:22:26.273Z,3.10
2023-04-11T11:24:54.971Z,3.58
2023-04-11T11:27:23.824Z,5.31
2023-04-11T11:29:51.888Z,3.76
2023-04-11T11:32:32.965Z,3.56
2023-04-11T11:35:00.372Z,4.76
2023-04-11T11:37:27.309Z,2.83
2023-04-11T11:39:55.213Z,2.71
2023-04-11T11:42:25.161Z,3.66
2023-04-11T11:44:52.104Z,1.82
2023-04-11T11:47:20.627Z,2.23
2023-04-11T11:49:48.930Z,3.39
2023-04-11T11:52:33.337Z,2.63
2023-04-11T11:55:02.277Z,4.73
2023-04-11T11:57:29.916Z,4.12
2023-04-11T11:59:57.965Z,4.18
2023-04-11T12:02:26.694Z,4.12
2023-04-11T12:05:00.819Z,3.47
2023-04-11T12:07:32.729Z,3.56
2023-04-11T12:10:14.989Z,2.75
2023-04-11T12:12:43.558Z,4.08
2023-04-11T12:15:24.118Z,2.77
2023-04-11T12:17:54.221Z,2.67
2023-04-11T12:20:27.286Z,4.73
2023-04-11T12:22:56.666Z,4.66
2023-04-11T12:25:25.668Z,6.15
2023-04-11T12:27:52.499Z,4.39
2023-04-11T12:30:19.270Z,5.59
2023-04-11T12:32:46.210Z,4.71
2023-04-11T12:35:13.571Z,5.48
2023-04-11T12:37:41.745Z,4.45
2023-04-11T12:40:12.165Z,3.58
2023-04-11T12:42:53.586Z,5.60
2023-04-11T12:45:23.547Z,3.63
2023-04-11T12:47:51.196Z,4.89
2023-04-11T12:50:18.320Z,4.54
2023-04-11T12:52:45.591Z,6.51
2023-04-11T12:55:13.428Z,6.17
2023-04-11T12:57:42.473Z,4.74
2023-04-11T13:00:13.449Z,3.82
2023-04-11T13:02:44.549Z,4.83
2023-04-11T13:05:14.464Z,3.77
2023-04-11T13:07:44.659Z,2.29
2023-04-11T13:10:14.103Z,5.86
2023-04-11T13:12:44.211Z,3.79
2023-04-11T13:15:13.292Z,5.80
2023-04-11T13:17:41.363Z,4.76
2023-04-11T13:20:11.432Z,5.27
2023-04-11T13:22:39.924Z,6.73
2023-04-11T13:25:07.730Z,6.18
2023-04-11T13:27:35.569Z,5.70
2023-04-11T13:30:04.893Z,6.87
2023-04-11T13:32:32.218Z,4.52
2023-04-11T13:34:59.516Z,6.11
2023-04-11T13:37:26.731Z,5.82
2023-04-11T13:39:53.568Z,3.56
2023-04-11T13:42:21.912Z,4.44
2023-04-11T13:44:48.771Z,3.61
2023-04-11T13:47:15.564Z,5.15
2023-04-11T13:49:42.880Z,4.70
2023-04-11T13:52:10.384Z,5.92
2023-04-11T13:54:39.069Z,5.00
2023-04-11T13:57:07.987Z,5.56
2023-04-11T13:59:35.368Z,4.92
2023-04-11T14:02:02.768Z,5.54
2023-04-11T14:04:29.954Z,5.05
2023-04-11T14:06:57.281Z,6.59
2023-04-11T14:09:24.117Z,6.28
2023-04-11T14:11:51.381Z,4.15
2023-04-11T14:14:18.553Z,5.56
2023-04-11T14:16:45.533Z,3.74
2023-04-11T14:19:12.744Z,4.20
2023-04-11T14:21:41.029Z,2.87
2023-04-11T14:24:08.419Z,6.15
2023-04-11T14:26:35.255Z,4.58
2023-04-11T14:29:02.804Z,4.40
2023-04-11T14:31:29.767Z,4.57
2023-04-11T14:33:57.671Z,5.76
2023-04-11T14:36:24.818Z,4.38
2023-04-11T14:38:53.035Z,4.71
2023-04-11T14:41:19.871Z,4.66
2023-04-11T14:43:46.653Z,4.24
2023-04-11T14:46:14.069Z,3.67
2023-04-11T14:48:42.803Z,3.60
2023-04-11T14:51:09.610Z,4.44
2023-04-11T14:53:36.990Z,5.68
2023-04-11T14:56:06.219Z,4.29
2023-04-11T14:58:33.262Z,4.20
2023-04-11T15:01:00.106Z,3.62
2023-04-11T15:03:28.729Z,4.24
2023-04-11T15:05:56.549Z,5.36
2023-04-11T15:08:23.913Z,4.56
2023-04-11T15:10:54.356Z,4.71
2023-04-11T15:13:22.830Z,4.18
2023-04-11T15:15:51.965Z,4.44
2023-04-11T15:18:30.607Z,3.22
2023-04-11T15:21:00.376Z,4.17
2023-04-11T15:23:28.677Z,4.16
2023-04-11T15:25:58.706Z,4.93
2023-04-11T15:28:27.765Z,4.24
2023-04-11T15:30:56.299Z,3.98
2023-04-11T15:33:24.285Z,3.88
2023-04-11T15:35:58.461Z,3.29
2023-04-11T15:38:27.872Z,4.27
2023-04-11T15:41:00.037Z,3.97
2023-04-11T15:43:27.938Z,4.48
2023-04-11T15:45:54.919Z,4.91
2023-04-11T15:48:21.770Z,3.72
2023-04-11T15:50:48.796Z,4.65
2023-04-11T15:53:15.708Z,5.89
2023-04-11T15:55:44.236Z,6.57
2023-04-11T15:58:12.119Z,6.63
2023-04-11T16:00:43.185Z,4.00
2023-04-11T16:03:10.608Z,6.25
2023-04-11T16:05:41.953Z,6.23
2023-04-11T16:08:09.106Z,4.48
2023-04-11T16:10:35.983Z,5.16
2023-04-11T16:13:03.249Z,3.35
2023-04-11T16:15:30.572Z,4.80
2023-04-11T16:17:58.434Z,4.87
2023-04-11T16:20:25.701Z,4.80
2023-04-11T16:22:53.663Z,3.73
2023-04-11T16:25:21.551Z,3.36
2023-04-11T16:27:50.065Z,3.62
2023-04-11T16:30:17.225Z,4.35
2023-04-11T16:32:44.837Z,5.03
2023-04-11T16:35:12.287Z,4.02
2023-04-11T16:37:39.350Z,3.20
2023-04-11T16:40:12.089Z,3.40
2023-04-11T16:42:40.030Z,4.16
2023-04-11T16:45:08.826Z,4.32
2023-04-11T16:47:35.822Z,3.34
2023-04-11T16:50:02.756Z,3.52
2023-04-11T16:52:30.191Z,5.36
2023-04-11T16:54:57.347Z,3.98
2023-04-11T16:57:25.860Z,4.80
2023-04-11T16:59:53.190Z,4.76
2023-04-11T17:02:20.498Z,3.25
2023-04-11T17:04:47.308Z,3.83
2023-04-11T17:07:14.316Z,3.03
2023-04-11T17:09:42.962Z,3.47
2023-04-11T17:12:10.238Z,3.60
2023-04-11T17:14:37.109Z,3.45
2023-04-11T17:17:04.325Z,2.23
2023-04-11T17:19:31.662Z,4.57
2023-04-11T17:21:59.234Z,4.08
2023-04-11T17:24:26.244Z,3.89
2023-04-11T17:26:55.560Z,3.87
2023-04-11T17:29:22.499Z,4.26
2023-04-11T17:31:49.446Z,3.68
2023-04-11T17:34:16.293Z,3.81
2023-04-11T17:36:44.362Z,4.62
2023-04-11T17:39:17.953Z,3.34
2023-04-11T17:41:46.074Z,4.50
2023-04-11T17:44:14.500Z,3.74
2023-04-11T17:46:41.542Z,4.86
2023-04-11T17:49:09.616Z,5.08
2023-04-11T17:51:38.920Z,3.10
2023-04-11T17:54:09.789Z,3.62
2023-04-11T17:56:36.592Z,4.20
2023-04-11T17:59:03.433Z,3.56
2023-04-11T18:01:32.535Z,3.80
2023-04-11T18:04:01.664Z,3.48
2023-04-11T18:06:29.870Z,3.40
2023-04-11T18:08:56.828Z,3.80
2023-04-11T18:11:24.138Z,3.11
2023-04-11T18:13:51.631Z,2.89
2023-04-11T18:16:18.633Z,3.73
2023-04-11T18:18:47.053Z,3.23
2023-04-11T18:21:16.512Z,4.45
2023-04-11T18:23:44.983Z,3.84
2023-04-11T18:26:11.827Z,2.30
2023-04-11T18:28:38.606Z,2.90
2023-04-11T18:31:05.722Z,3.39
2023-04-11T18:33:32.929Z,4.03
2023-04-11T18:36:00.453Z,3.95
2023-04-11T18:38:28.749Z,4.04
2023-04-11T18:40:56.951Z,4.12
2023-04-11T18:43:25.266Z,3.93
2023-04-11T18:45:52.124Z,3.41
2023-04-11T18:48:18.995Z,3.34
2023-04-11T18:50:48.685Z,3.81
2023-04-11T18:53:16.278Z,4.32
2023-04-11T18:55:43.833Z,3.24
2023-04-11T18:58:12.497Z,3.07
2023-04-11T19:00:42.137Z,3.74
2023-04-11T19:03:15.810Z,4.04
2023-04-11T19:05:44.407Z,3.94
2023-04-11T19:08:12.302Z,3.24
2023-04-11T19:10:39.278Z,3.63
2023-04-11T19:13:07.533Z,3.11
2023-04-11T19:15:34.484Z,3.07
2023-04-11T19:18:02.051Z,2.95
2023-04-11T19:20:30.531Z,2.52
2023-04-11T19:22:57.532Z,3.17
2023-04-11T19:25:24.543Z,3.32
2023-04-11T19:27:51.640Z,2.78
2023-04-11T19:30:18.589Z,2.55
2023-04-11T19:32:47.740Z,3.06
2023-04-11T19:35:15.710Z,3.09
2023-04-11T19:37:43.140Z,2.83
2023-04-11T19:40:11.620Z,2.37
2023-04-11T19:42:39.976Z,2.23
2023-04-11T19:45:09.252Z,2.21
2023-04-11T19:47:36.333Z,2.54
2023-04-11T19:50:03.432Z,2.66
2023-04-11T19:52:35.179Z,0.23
2023-04-11T19:55:05.229Z,0.12
2023-04-11T19:57:32.527Z,0.28
2023-04-11T20:00:01.073Z,-0.70
2023-04-11T20:02:28.070Z,-0.55
2023-04-11T20:04:56.281Z,0.41
2023-04-11T20:07:23.518Z,-0.11
2023-04-11T20:09:51.447Z,-0.48
2023-04-11T20:12:18.333Z,0.75
2023-04-11T20:14:46.222Z,0.99
2023-04-11T20:17:13.040Z,0.81
2023-04-11T20:19:42.284Z,1.03
2023-04-11T20:22:11.425Z,1.82
2023-04-11T20:24:38.269Z,0.78
2023-04-11T20:27:05.730Z,1.11
2023-04-11T20:29:33.106Z,1.96
2023-04-11T20:32:01.787Z,2.53
2023-04-11T20:34:28.757Z,2.50
2023-04-11T20:36:56.297Z,0.47
2023-04-11T20:39:23.327Z,-0.88
2023-04-11T20:41:50.140Z,-0.44
2023-04-11T20:44:21.299Z,0.57
2023-04-11T20:46:48.222Z,1.87
2023-04-11T20:49:17.757Z,1.02
2023-04-11T20:51:45.120Z,1.29
2023-04-11T20:54:11.969Z,-1.76
2023-04-11T20:56:38.766Z,0.48
2023-04-11T20:59:07.276Z,1.10
2023-04-11T21:01:34.115Z,-1.48
2023-04-11T21:04:05.017Z,-0.55
2023-04-11T21:06:32.190Z,-0.11
2023-04-11T21:09:05.969Z,-1.04
2023-04-11T21:11:33.301Z,0.99
2023-04-11T21:14:00.159Z,0.79
2023-04-11T21:16:27.145Z,0.45
2023-04-11T21:18:54.095Z,-1.39
2023-04-11T21:21:20.933Z,-0.14
2023-04-11T21:23:48.287Z,0.13
2023-04-11T21:26:15.334Z,-0.42
2023-04-11T21:28:42.201Z,0.75
2023-04-11T21:31:09.080Z,0.69
2023-04-11T21:33:35.862Z,1.16
2023-04-11T21:36:03.062Z,0.34
2023-04-11T21:38:30.336Z,0.43
2023-04-11T21:40:58.115Z,0.09
2023-04-11T21:43:25.025Z,-0.53
2023-04-11T21:45:51.811Z,-2.35
2023-04-11T21:48:18.760Z,-1.90
2023-04-11T21:50:46.552Z,-0.05
2023-04-11T21:53:14.204Z,0.99
2023-04-11T21:55:47.385Z,1.42
2023-04-11T21:58:27.942Z,1.35
2023-04-11T22:00:56.368Z,1.15
2023-04-11T22:03:23.782Z,0.00
2023-04-11T22:05:52.582Z,-0.79
2023-04-11T22:08:20.377Z,-0.91
2023-04-11T22:10:48.288Z,0.13
2023-04-11T22:13:18.513Z,-0.50
2023-04-11T22:15:47.298Z,-1.03
2023-04-11T22:18:14.618Z,0.42
2023-04-11T22:20:46.466Z,-0.80
2023-04-11T22:23:13.898Z,0.49
2023-04-11T22:25:42.464Z,-0.70
2023-04-11T22:28:14.074Z,-0.90
2023-04-11T22:30:41.380Z,-0.32
2023-04-11T22:33:08.953Z,-1.17
2023-04-11T22:35:35.841Z,-0.86
2023-04-11T22:38:03.692Z,-1.03
2023-04-11T22:40:30.937Z,-1.24
2023-04-11T22:42:57.756Z,-2.41
2023-04-11T22:45:24.641Z,0.15
2023-04-11T22:47:54.448Z,0.34
2023-04-11T22:50:21.856Z,-0.37
2023-04-11T22:52:50.155Z,0.39
2023-04-11T22:55:20.051Z,-0.60
2023-04-11T22:57:47.645Z,-1.90
2023-04-11T23:00:17.897Z,-1.86
2023-04-11T23:02:45.167Z,-1.03
2023-04-11T23:05:12.161Z,-0.09
2023-04-11T23:07:38.903Z,-1.07
2023-04-11T23:10:09.163Z,-0.08
2023-04-11T23:12:36.461Z,-1.02
2023-04-11T23:15:04.249Z,0.26
2023-04-11T23:17:31.403Z,-0.09
2023-04-11T23:19:59.622Z,0.31
2023-04-11T23:22:26.743Z,-0.05
2023-04-11T23:24:53.902Z,-0.33
2023-04-11T23:27:21.177Z,0.50
2023-04-11T23:29:52.720Z,-0.64
2023-04-11T23:32:20.349Z,0.55
2023-04-11T23:34:47.848Z,-0.56
2023-04-11T23:37:14.771Z,-1.33
2023-04-11T23:39:42.144Z,-1.03
2023-04-11T23:42:09.045Z,-1.68
2023-04-11T23:44:35.920Z,-0.55
2023-04-11T23:47:03.195Z,-0.08
2023-04-11T23:49:30.140Z,0.52
2023-04-11T23:51:56.891Z,1.08
2023-04-11T23:54:28.894Z,1.43
2023-04-11T23:56:59.738Z,2.34
2023-04-11T23:59:27.149Z,1.72
